Airfield :







YOU CAN JOIN US ON...

 
LOGIN :

Register | Disclaimer

   EN    FR    IT 

 









Legend :    VFR   Marginal VFR   IFR   Intensive IFR   Very Intensive IFR
Visi :
Ceiling :
>= 8 km
>= 3000ft
5 to 8 km
1000 to 3000 ft
1500m to 5 km
500 to 1000 ft
800 to 1500m
200 to 500 ft
< 800m
< 200 ft
Symbols :   Thunderstorms  Fog  Heavy snow  Heavy precipitations  Wind > 20 kt






- Airport Elevation : 285 ft
- IATA code : ALB


KALB - Albany International

CURRENT METAR :
  • 200351Z 30006KT 10SM SCT060 M04/M13 A3038 RMK AO2 SLP292 T10391133

EXPIRED METARs :
  • 200251Z 30007KT 10SM FEW043 BKN055 M03/M13 A3038 RMK AO2 SLP291 T10281133 51010
  • 200151Z 30010KT 10SM BKN045 M03/M13 A3037 RMK AO2 SLP288 BKN V SCT T10331133

TAF KALB
Valid from the 20 at 00:00 until the 21 at 00:00 UTC


192330Z 2000/2024 30013G22KT P6SM FEW050
FM200400 30006KT P6SM VCSH BKN050
FM201500 31010G18KT P6SM BKN060



MET'MAP, your aeronautical weather chart ! - Copyright ORBIFLY December 2007 - Disclaimer

ORBIFLY MET'MAP TEAM :

Programming & Development : Alexandra Zaïnal
Concept & original design : Baudouin d'Aumeries
Assistance for programming : Marc-Olivier Méhu
Technical & hardware support : Manuel Goepfert

Contact : metmap@orbifly.com




SOURCES & CREDITS :

   NOAA